Buoy 52609

sailwx.info

Track history (hours):
 
Tides and Currents Weather Stations Pressure Air Temp Water Temp Dewpoint Dewpoint Depression Visibility Wind Speed Wind Dir Waves Ship Positions

Drifting buoy 52609

Last reported at 2015-Feb-28 21:00 UTC. Time now 2015-Feb-28 23:07 UTC.
Position N 16°54' E 133°22'.

Water temperature 25.9 ° C

Date/timePositionNaut miles runAvg speedWind from/ knotsBaromVisibWave heightAir tempDewpointWater temp
2015-Feb-28 21:00N 16°54' E 133°22'1 0.9 25.9
2015-Feb-28 20:00N 16°55' E 133°23'2 1.7 25.8
2015-Feb-28 19:00N 16°56' E 133°24'2 0.3 25.9
2015-Feb-28 13:00N 16°57' E 133°26'1 0.6 25.9
2015-Feb-28 11:00N 16°58' E 133°27'2 1.6 25.9
2015-Feb-28 10:00N 16°59' E 133°28'2 0.5 25.9
2015-Feb-28 07:00N 16°59' E 133°30'0 0.0 25.9
2015-Feb-28 06:00N 16°59' E 133°30'1 1.1 26.0
2015-Feb-28 05:00N 16°60' E 133°31'6 0.7 25.9
2015-Feb-27 20:00N 17°02' E 133°37'1 0.3 25.9
2015-Feb-27 17:00N 17°01' E 133°38'6 0.6 25.9
2015-Feb-27 08:00N 17°00' E 133°43'0 0.3 26.0
2015-Feb-27 07:00N 17°00' E 133°44'1 1.2 26.1
2015-Feb-27 06:00N 16°59' E 133°44'0 0.0 26.1
2015-Feb-27 05:00N 16°59' E 133°44'0 0.0 26.1
2015-Feb-27 04:00N 16°59' E 133°44'3 2.9 26.1
2015-Feb-27 03:00N 16°57' E 133°47'5 1.0 26.0
2015-Feb-26 22:00N 16°56' E 133°52'3 0.4 25.9
2015-Feb-26 13:00N 16°55' E 133°54'0 0.4 26.0
2015-Feb-26 12:00N 16°54' E 133°54'1 0.6 26.0
2015-Feb-26 11:00N 16°55' E 133°55'2 1.0 26.0
2015-Feb-26 09:00N 16°54' E 133°57'2 1.5 26.0
2015-Feb-26 08:00N 16°53' E 133°55'1 0.5 26.1
2015-Feb-26 07:00N 16°53' E 133°56'3 1.2 26.1
2015-Feb-26 04:00N 16°51' E 133°53'4 2.2 26.1
2015-Feb-26 02:00N 16°46' E 133°53'0 0.0 26.0
2015-Feb-26 01:00N 16°46' E 133°53'2 1.8 26.0
2015-Feb-26 00:00N 16°45' E 133°54'0 0.0 25.9
2015-Feb-25 23:00N 16°45' E 133°54'0 0.1 25.9
2015-Feb-25 21:00N 16°45' E 133°54'0 0.1 26.0
2015-Feb-25 20:00N 16°45' E 133°54'1 0.6 25.9
2015-Feb-25 19:00N 16°45' E 133°53'0 0.4 25.9
2015-Feb-25 18:00N 16°44' E 133°53'1 0.2 26.0
2015-Feb-25 12:00N 16°44' E 133°52'0 0.0 26.0
2015-Feb-25 11:00N 16°44' E 133°52'1 0.9 26.0
2015-Feb-25 10:00N 16°45' E 133°52'0 0.2 26.0
2015-Feb-25 08:00N 16°45' E 133°51'3 1.6 26.0
2015-Feb-25 06:00N 16°46' E 133°48'2 0.4 26.1
2015-Feb-25 01:00N 16°46' E 133°45'2 1.6 25.9
2015-Feb-25 00:00N 16°45' E 133°47'2 2.0 25.9
2015-Feb-24 23:00N 16°46' E 133°45'1 0.3 25.9
2015-Feb-24 21:00N 16°46' E 133°45'1 0.6 25.9
2015-Feb-24 19:00N 16°47' E 133°45'1 0.6 25.9
2015-Feb-24 18:00N 16°48' E 133°44'0 0.2 25.9
2015-Feb-24 17:00N 16°48' E 133°44'2 0.6 25.9
2015-Feb-24 13:00N 16°50' E 133°44'1 0.9 25.9
2015-Feb-24 12:00N 16°51' E 133°44'1 1.3 25.9
2015-Feb-24 11:00N 16°51' E 133°46'2 2.4 25.9
2015-Feb-24 10:00N 16°54' E 133°45'1 0.5 25.9
2015-Feb-24 08:00N 16°55' E 133°45'1 0.5 25.9
2015-Feb-24 07:00N 16°55' E 133°45'1 1.1 26.0
2015-Feb-24 06:00N 16°56' E 133°45'1 1.4 26.0
2015-Feb-24 05:00N 16°56' E 133°43'1 0.3 26.0
2015-Feb-24 01:00N 16°58' E 133°43'1 1.2 25.9
2015-Feb-24 00:00N 16°59' E 133°42'2 1.8 25.9
2015-Feb-23 23:00N 16°58' E 133°44'0 0.0 25.8
2015-Feb-23 22:00N 16°58' E 133°44'2 2.3 25.8
2015-Feb-23 21:00N 16°59' E 133°47'1 0.5 25.8
2015-Feb-23 19:00N 16°59' E 133°47'1 1.3 25.8
2015-Feb-23 18:00N 16°60' E 133°49'0 0.1 25.9
2015-Feb-23 17:00N 16°60' E 133°49'3 2.9 25.9
2015-Feb-23 16:00N 17°01' E 133°51'2 1.6 25.9
2015-Feb-23 15:00N 17°01' E 133°50'2 0.8 25.9
2015-Feb-23 13:00N 17°01' E 133°51'1 1.3 25.9
2015-Feb-23 12:00N 17°02' E 133°53'0 0.0 25.9
2015-Feb-23 11:00N 17°02' E 133°53'4 1.9 25.9
2015-Feb-23 09:00N 17°03' E 133°56'1 1.0 25.9
2015-Feb-23 08:00N 17°04' E 133°57'1 0.9 26.0
2015-Feb-23 07:00N 17°04' E 133°58'1 1.4 26.0
2015-Feb-23 06:00N 17°05' E 133°59'0 0.0 26.0
2015-Feb-23 05:00N 17°05' E 133°59'2 1.0 26.0
2015-Feb-23 03:00N 17°06' E 134°01'0 0.0 26.0
2015-Feb-23 01:00N 17°06' E 134°01'1 0.7 25.9
2015-Feb-23 00:00N 17°06' E 134°02'2 1.7 25.9
2015-Feb-22 23:00N 17°04' E 134°03'1 0.5 25.9
2015-Feb-22 21:00N 17°04' E 134°04'1 1.1 25.9
2015-Feb-22 20:00N 17°03' E 134°05'2 1.9 25.9
2015-Feb-22 19:00N 17°03' E 134°07'0 0.3 25.9
2015-Feb-22 18:00N 17°03' E 134°07'2 1.8 25.9
2015-Feb-22 17:00N 17°03' E 134°09'3 2.7 25.9
2015-Feb-22 16:00N 17°01' E 134°11'3 2.7 25.9
2015-Feb-22 15:00N 17°03' E 134°09'3 1.4 25.9
2015-Feb-22 13:00N 17°01' E 134°11'1 0.9 25.9
2015-Feb-22 12:00N 17°01' E 134°12'4 3.7 25.9
2015-Feb-22 11:00N 16°59' E 134°15'0 0.0 25.9
2015-Feb-22 09:00N 16°59' E 134°15'0 0.3 26.0
2015-Feb-22 08:00N 16°59' E 134°15'3 1.5 26.0
2015-Feb-22 06:00N 16°58' E 134°18'0 0.1 26.0
2015-Feb-22 05:00N 16°58' E 134°18'1 0.7 26.0
2015-Feb-22 03:00N 16°58' E 134°20'4 2.2 26.0
2015-Feb-22 01:00N 16°53' E 134°20'0 0.0 26.0
2015-Feb-21 23:00N 16°53' E 134°20'0 0.1 26.0
2015-Feb-21 21:00N 16°53' E 134°20'3 1.0 26.0
2015-Feb-21 18:00N 16°51' E 134°23'0 0.0 26.0
2015-Feb-21 17:00N 16°51' E 134°23'2 0.3 26.0
2015-Feb-21 11:00N 16°50' E 134°24'2 0.5 26.1
2015-Feb-21 07:00N 16°48' E 134°23'0 0.1 26.1
2015-Feb-21 04:00N 16°48' E 134°23'0 0.0 26.1
2015-Feb-21 03:00N 16°48' E 134°23'1 0.6 26.1
2015-Feb-21 01:00N 16°49' E 134°22'3 3.2 26.1
2015-Feb-21 00:00N 16°46' E 134°20'0 0.0 26.1
2015-Feb-20 23:00N 16°46' E 134°20'0 0.1 26.0
2015-Feb-20 21:00N 16°46' E 134°20'0 0.2 26.0
2015-Feb-20 20:00N 16°46' E 134°20'1 0.9 26.0
2015-Feb-20 19:00N 16°45' E 134°19'0 0.1 26.1
2015-Feb-20 18:00N 16°45' E 134°19'0 0.0 26.1
2015-Feb-20 16:00N 16°45' E 134°19'1 0.1 26.1
2015-Feb-20 11:00N 16°46' E 134°19'0 0.1 26.1
2015-Feb-20 09:00N 16°46' E 134°19'0 0.1 26.2
2015-Feb-20 07:00N 16°46' E 134°19'1 0.6 26.2
2015-Feb-20 06:00N 16°47' E 134°18'0 0.2 26.2
2015-Feb-20 04:00N 16°47' E 134°18'0 0.0 26.2
2015-Feb-20 03:00N 16°47' E 134°18'6 0.7 26.2
2015-Feb-19 19:00N 16°52' E 134°16'2 0.3 26.2
2015-Feb-19 13:00N 16°54' E 134°16'3 0.5 26.3
2015-Feb-19 08:00N 16°56' E 134°16'6 0.9 26.3
2015-Feb-19 01:00N 17°02' E 134°18'0 0.0 26.3
2015-Feb-19 00:00N 17°02' E 134°18'0 0.0 26.3
2015-Feb-18 23:00N 17°02' E 134°18'   26.2
Track history (hours):
 
Tides and Currents Weather Stations Pressure Air Temp Water Temp Dewpoint Dewpoint Depression Visibility Wind Speed Wind Dir Waves Ship Positions

Drifting buoy 52609

Last reported at 2015-Feb-28 21:00 UTC. Time now 2015-Feb-28 23:07 UTC.
Position N 16°54' E 133°22'.

Water temperature 25.9 ° C

Date/timePositionNaut miles runAvg speedWind from/ knotsBaromVisibWave heightAir tempDewpointWater temp
2015-Feb-28 21:00N 16°54' E 133°22'1 0.9 25.9
2015-Feb-28 20:00N 16°55' E 133°23'2 1.7 25.8
2015-Feb-28 19:00N 16°56' E 133°24'2 0.3 25.9
2015-Feb-28 13:00N 16°57' E 133°26'1 0.6 25.9
2015-Feb-28 11:00N 16°58' E 133°27'2 1.6 25.9
2015-Feb-28 10:00N 16°59' E 133°28'2 0.5 25.9
2015-Feb-28 07:00N 16°59' E 133°30'0 0.0 25.9
2015-Feb-28 06:00N 16°59' E 133°30'1 1.1 26.0
2015-Feb-28 05:00N 16°60' E 133°31'6 0.7 25.9
2015-Feb-27 20:00N 17°02' E 133°37'1 0.3 25.9
2015-Feb-27 17:00N 17°01' E 133°38'6 0.6 25.9
2015-Feb-27 08:00N 17°00' E 133°43'0 0.3 26.0
2015-Feb-27 07:00N 17°00' E 133°44'1 1.2 26.1
2015-Feb-27 06:00N 16°59' E 133°44'0 0.0 26.1
2015-Feb-27 05:00N 16°59' E 133°44'0 0.0 26.1
2015-Feb-27 04:00N 16°59' E 133°44'3 2.9 26.1
2015-Feb-27 03:00N 16°57' E 133°47'5 1.0 26.0
2015-Feb-26 22:00N 16°56' E 133°52'3 0.4 25.9
2015-Feb-26 13:00N 16°55' E 133°54'0 0.4 26.0
2015-Feb-26 12:00N 16°54' E 133°54'1 0.6 26.0
2015-Feb-26 11:00N 16°55' E 133°55'2 1.0 26.0
2015-Feb-26 09:00N 16°54' E 133°57'2 1.5 26.0
2015-Feb-26 08:00N 16°53' E 133°55'1 0.5 26.1
2015-Feb-26 07:00N 16°53' E 133°56'3 1.2 26.1
2015-Feb-26 04:00N 16°51' E 133°53'4 2.2 26.1
2015-Feb-26 02:00N 16°46' E 133°53'0 0.0 26.0
2015-Feb-26 01:00N 16°46' E 133°53'2 1.8 26.0
2015-Feb-26 00:00N 16°45' E 133°54'0 0.0 25.9
2015-Feb-25 23:00N 16°45' E 133°54'0 0.1 25.9
2015-Feb-25 21:00N 16°45' E 133°54'0 0.1 26.0
2015-Feb-25 20:00N 16°45' E 133°54'1 0.6 25.9
2015-Feb-25 19:00N 16°45' E 133°53'0 0.4 25.9
2015-Feb-25 18:00N 16°44' E 133°53'1 0.2 26.0
2015-Feb-25 12:00N 16°44' E 133°52'0 0.0 26.0
2015-Feb-25 11:00N 16°44' E 133°52'1 0.9 26.0
2015-Feb-25 10:00N 16°45' E 133°52'0 0.2 26.0
2015-Feb-25 08:00N 16°45' E 133°51'3 1.6 26.0
2015-Feb-25 06:00N 16°46' E 133°48'2 0.4 26.1
2015-Feb-25 01:00N 16°46' E 133°45'2 1.6 25.9
2015-Feb-25 00:00N 16°45' E 133°47'2 2.0 25.9
2015-Feb-24 23:00N 16°46' E 133°45'1 0.3 25.9
2015-Feb-24 21:00N 16°46' E 133°45'1 0.6 25.9
2015-Feb-24 19:00N 16°47' E 133°45'1 0.6 25.9
2015-Feb-24 18:00N 16°48' E 133°44'0 0.2 25.9
2015-Feb-24 17:00N 16°48' E 133°44'2 0.6 25.9
2015-Feb-24 13:00N 16°50' E 133°44'1 0.9 25.9
2015-Feb-24 12:00N 16°51' E 133°44'1 1.3 25.9
2015-Feb-24 11:00N 16°51' E 133°46'2 2.4 25.9
2015-Feb-24 10:00N 16°54' E 133°45'1 0.5 25.9
2015-Feb-24 08:00N 16°55' E 133°45'1 0.5 25.9
2015-Feb-24 07:00N 16°55' E 133°45'1 1.1 26.0
2015-Feb-24 06:00N 16°56' E 133°45'1 1.4 26.0
2015-Feb-24 05:00N 16°56' E 133°43'1 0.3 26.0
2015-Feb-24 01:00N 16°58' E 133°43'1 1.2 25.9
2015-Feb-24 00:00N 16°59' E 133°42'2 1.8 25.9
2015-Feb-23 23:00N 16°58' E 133°44'0 0.0 25.8
2015-Feb-23 22:00N 16°58' E 133°44'2 2.3 25.8
2015-Feb-23 21:00N 16°59' E 133°47'1 0.5 25.8
2015-Feb-23 19:00N 16°59' E 133°47'1 1.3 25.8
2015-Feb-23 18:00N 16°60' E 133°49'0 0.1 25.9
2015-Feb-23 17:00N 16°60' E 133°49'3 2.9 25.9
2015-Feb-23 16:00N 17°01' E 133°51'2 1.6 25.9
2015-Feb-23 15:00N 17°01' E 133°50'2 0.8 25.9
2015-Feb-23 13:00N 17°01' E 133°51'1 1.3 25.9
2015-Feb-23 12:00N 17°02' E 133°53'0 0.0 25.9
2015-Feb-23 11:00N 17°02' E 133°53'4 1.9 25.9
2015-Feb-23 09:00N 17°03' E 133°56'1 1.0 25.9
2015-Feb-23 08:00N 17°04' E 133°57'1 0.9 26.0
2015-Feb-23 07:00N 17°04' E 133°58'1 1.4 26.0
2015-Feb-23 06:00N 17°05' E 133°59'0 0.0 26.0
2015-Feb-23 05:00N 17°05' E 133°59'2 1.0 26.0
2015-Feb-23 03:00N 17°06' E 134°01'0 0.0 26.0
2015-Feb-23 01:00N 17°06' E 134°01'1 0.7 25.9
2015-Feb-23 00:00N 17°06' E 134°02'2 1.7 25.9
2015-Feb-22 23:00N 17°04' E 134°03'1 0.5 25.9
2015-Feb-22 21:00N 17°04' E 134°04'1 1.1 25.9
2015-Feb-22 20:00N 17°03' E 134°05'2 1.9 25.9
2015-Feb-22 19:00N 17°03' E 134°07'0 0.3 25.9
2015-Feb-22 18:00N 17°03' E 134°07'2 1.8 25.9
2015-Feb-22 17:00N 17°03' E 134°09'3 2.7 25.9
2015-Feb-22 16:00N 17°01' E 134°11'3 2.7 25.9
2015-Feb-22 15:00N 17°03' E 134°09'3 1.4 25.9
2015-Feb-22 13:00N 17°01' E 134°11'1 0.9 25.9
2015-Feb-22 12:00N 17°01' E 134°12'4 3.7 25.9
2015-Feb-22 11:00N 16°59' E 134°15'0 0.0 25.9
2015-Feb-22 09:00N 16°59' E 134°15'0 0.3 26.0
2015-Feb-22 08:00N 16°59' E 134°15'3 1.5 26.0
2015-Feb-22 06:00N 16°58' E 134°18'0 0.1 26.0
2015-Feb-22 05:00N 16°58' E 134°18'1 0.7 26.0
2015-Feb-22 03:00N 16°58' E 134°20'4 2.2 26.0
2015-Feb-22 01:00N 16°53' E 134°20'0 0.0 26.0
2015-Feb-21 23:00N 16°53' E 134°20'0 0.1 26.0
2015-Feb-21 21:00N 16°53' E 134°20'3 1.0 26.0
2015-Feb-21 18:00N 16°51' E 134°23'0 0.0 26.0
2015-Feb-21 17:00N 16°51' E 134°23'2 0.3 26.0
2015-Feb-21 11:00N 16°50' E 134°24'2 0.5 26.1
2015-Feb-21 07:00N 16°48' E 134°23'0 0.1 26.1
2015-Feb-21 04:00N 16°48' E 134°23'0 0.0 26.1
2015-Feb-21 03:00N 16°48' E 134°23'1 0.6 26.1
2015-Feb-21 01:00N 16°49' E 134°22'3 3.2 26.1
2015-Feb-21 00:00N 16°46' E 134°20'0 0.0 26.1
2015-Feb-20 23:00N 16°46' E 134°20'0 0.1 26.0
2015-Feb-20 21:00N 16°46' E 134°20'0 0.2 26.0
2015-Feb-20 20:00N 16°46' E 134°20'1 0.9 26.0
2015-Feb-20 19:00N 16°45' E 134°19'0 0.1 26.1
2015-Feb-20 18:00N 16°45' E 134°19'0 0.0 26.1
2015-Feb-20 16:00N 16°45' E 134°19'1 0.1 26.1
2015-Feb-20 11:00N 16°46' E 134°19'0 0.1 26.1
2015-Feb-20 09:00N 16°46' E 134°19'0 0.1 26.2
2015-Feb-20 07:00N 16°46' E 134°19'1 0.6 26.2
2015-Feb-20 06:00N 16°47' E 134°18'0 0.2 26.2
2015-Feb-20 04:00N 16°47' E 134°18'0 0.0 26.2
2015-Feb-20 03:00N 16°47' E 134°18'6 0.7 26.2
2015-Feb-19 19:00N 16°52' E 134°16'2 0.3 26.2
2015-Feb-19 13:00N 16°54' E 134°16'3 0.5 26.3
2015-Feb-19 08:00N 16°56' E 134°16'6 0.9 26.3
2015-Feb-19 01:00N 17°02' E 134°18'0 0.0 26.3
2015-Feb-19 00:00N 17°02' E 134°18'0 0.0 26.3
2015-Feb-18 23:00N 17°02' E 134°18'   26.2

Dump ship's entire track history